createdAt,value
2022-12-11T00:02:11.321Z,100978.22
2022-12-11T00:04:37.993Z,100975.75
2022-12-11T00:07:04.624Z,100967.22
2022-12-11T00:09:31.290Z,100972.13
2022-12-11T00:11:57.997Z,100974.38
2022-12-11T00:14:24.711Z,100970.34
2022-12-11T00:16:51.301Z,100972.94
2022-12-11T00:19:17.944Z,100975.75
2022-12-11T00:21:44.689Z,100977.16
2022-12-11T00:24:11.499Z,100967.56
2022-12-11T00:26:39.135Z,100975.28
2022-12-11T00:29:08.256Z,100975.78
2022-12-11T00:31:35.059Z,100968.97
2022-12-11T00:34:02.707Z,100965.69
2022-12-11T00:36:29.538Z,100971.06
2022-12-11T00:38:56.262Z,100969.22
2022-12-11T00:41:23.394Z,100967.09
2022-12-11T00:43:50.410Z,100966.16
2022-12-11T00:46:17.424Z,100964.16
2022-12-11T00:48:44.078Z,100962.88
2022-12-11T00:51:11.076Z,100953.41
2022-12-11T00:53:38.655Z,100952.13
2022-12-11T00:56:17.460Z,100969.31
2022-12-11T00:58:44.874Z,100961.50
2022-12-11T01:01:16.712Z,100963.72
2022-12-11T01:03:43.387Z,100966.97
2022-12-11T01:06:15.368Z,100959.50
2022-12-11T01:08:42.428Z,100966.63
2022-12-11T01:11:11.959Z,100969.31
2022-12-11T01:13:39.995Z,100953.97
2022-12-11T01:16:13.524Z,100955.63
2022-12-11T01:18:40.634Z,100968.16
2022-12-11T01:21:09.673Z,100965.47
2022-12-11T01:23:37.687Z,100974.81
2022-12-11T01:26:12.656Z,100976.69
2022-12-11T01:28:40.158Z,100979.03
2022-12-11T01:31:15.354Z,100973.66
2022-12-11T01:33:42.755Z,100966.16
2022-12-11T01:36:19.009Z,100961.59
2022-12-11T01:38:46.926Z,100957.72
2022-12-11T01:41:14.571Z,100953.75
2022-12-11T01:44:00.073Z,100961.00
2022-12-11T01:46:31.176Z,100953.50
2022-12-11T01:48:59.295Z,100950.13
2022-12-11T01:51:34.971Z,100937.25
2022-12-11T01:54:07.748Z,100955.16
2022-12-11T01:56:38.579Z,100949.78
2022-12-11T01:59:07.913Z,100946.84
2022-12-11T02:01:44.025Z,100945.78
2022-12-11T02:04:16.042Z,100950.13
2022-12-11T02:06:46.915Z,100946.47
2022-12-11T02:09:22.115Z,100953.75
2022-12-11T02:11:55.079Z,100958.66
2022-12-11T02:14:43.526Z,100966.38
2022-12-11T02:17:33.801Z,100964.50
2022-12-11T02:20:23.180Z,100968.03
2022-12-11T02:23:09.010Z,100961.81
2022-12-11T02:26:17.122Z,100962.19
2022-12-11T02:28:49.279Z,100951.53
2022-12-11T02:31:15.890Z,100963.13
2022-12-11T02:33:49.839Z,100952.56
2022-12-11T02:36:19.296Z,100944.38
2022-12-11T02:38:51.031Z,100953.63
2022-12-11T02:41:20.285Z,100948.00
2022-12-11T02:43:50.281Z,100933.59
2022-12-11T02:46:19.763Z,100942.25
2022-12-11T02:48:49.720Z,100936.56
2022-12-11T02:51:19.501Z,100938.41
2022-12-11T02:53:47.163Z,100941.91
2022-12-11T02:56:22.465Z,100938.53
2022-12-11T02:58:58.655Z,100941.91
2022-12-11T03:01:26.526Z,100935.97
2022-12-11T03:03:54.687Z,100935.13
2022-12-11T03:06:28.713Z,100944.50
2022-12-11T03:08:55.404Z,100936.31
2022-12-11T03:11:24.986Z,100941.13
2022-12-11T03:13:53.764Z,100925.88
2022-12-11T03:16:37.300Z,100932.91
2022-12-11T03:19:07.524Z,100923.66
2022-12-11T03:21:59.141Z,100928.09
2022-12-11T03:24:46.827Z,100922.41
2022-12-11T03:27:42.236Z,100924.03
2022-12-11T03:30:14.222Z,100918.41
2022-12-11T03:32:48.772Z,100918.06
2022-12-11T03:35:29.244Z,100922.41
2022-12-11T03:37:59.226Z,100913.72
2022-12-11T03:40:31.082Z,100923.31
2022-12-11T03:42:58.526Z,100920.75
2022-12-11T03:45:27.514Z,100908.81
2022-12-11T03:47:56.869Z,100915.94
2022-12-11T03:50:28.661Z,100912.22
2022-12-11T03:52:57.608Z,100905.19
2022-12-11T03:55:26.291Z,100905.31
2022-12-11T03:57:53.021Z,100894.41
2022-12-11T04:00:21.004Z,100901.78
2022-12-11T04:03:12.967Z,100905.44
2022-12-11T04:05:46.909Z,100901.53
2022-12-11T04:08:15.082Z,100898.03
2022-12-11T04:10:42.217Z,100896.19
2022-12-11T04:13:10.032Z,100896.19
2022-12-11T04:15:37.675Z,100897.09
2022-12-11T04:18:40.165Z,100891.72
2022-12-11T04:21:25.314Z,100895.00
2022-12-11T04:24:10.438Z,100887.06
2022-12-11T04:26:37.071Z,100891.75
2022-12-11T04:29:03.634Z,100897.09
2022-12-11T04:31:30.565Z,100882.84
2022-12-11T04:33:57.548Z,100890.31
2022-12-11T04:36:24.552Z,100889.38
2022-12-11T04:38:51.246Z,100889.13
2022-12-11T04:41:18.074Z,100863.28
2022-12-11T04:43:47.423Z,100868.69
2022-12-11T04:46:16.876Z,100876.50
2022-12-11T04:48:44.647Z,100874.97
2022-12-11T04:51:11.540Z,100874.66
2022-12-11T04:53:38.739Z,100875.13
2022-12-11T04:56:07.441Z,100871.81
2022-12-11T04:58:36.045Z,100864.00
2022-12-11T05:01:14.742Z,100848.81
2022-12-11T05:03:42.124Z,100874.19
2022-12-11T05:06:10.331Z,100871.59
2022-12-11T05:08:38.891Z,100873.34
2022-12-11T05:11:07.696Z,100874.28
2022-12-11T05:13:34.717Z,100868.56
2022-12-11T05:16:08.362Z,100866.81
2022-12-11T05:18:35.372Z,100868.78
2022-12-11T05:21:05.219Z,100858.06
2022-12-11T05:23:35.062Z,100873.59
2022-12-11T05:26:06.232Z,100874.41
2022-12-11T05:28:37.044Z,100866.00
2022-12-11T05:31:11.539Z,100860.97
2022-12-11T05:33:38.911Z,100858.16
2022-12-11T05:36:06.996Z,100858.63
2022-12-11T05:38:33.624Z,100858.97
2022-12-11T05:41:03.348Z,100858.97
2022-12-11T05:43:33.387Z,100870.66
2022-12-11T05:46:17.876Z,100873.47
2022-12-11T05:48:46.976Z,100867.03
2022-12-11T05:51:15.404Z,100865.63
2022-12-11T05:53:46.231Z,100871.94
2022-12-11T05:56:31.153Z,100884.81
2022-12-11T05:58:59.368Z,100877.66
2022-12-11T06:01:29.875Z,100869.50
2022-12-11T06:03:57.782Z,100868.66
2022-12-11T06:06:25.421Z,100867.59
2022-12-11T06:08:54.032Z,100865.88
2022-12-11T06:11:24.179Z,100863.97
2022-12-11T06:13:54.437Z,100866.69
2022-12-11T06:16:22.037Z,100857.19
2022-12-11T06:18:48.762Z,100865.63
2022-12-11T06:21:18.040Z,100866.56
2022-12-11T06:23:45.903Z,100866.56
2022-12-11T06:26:13.987Z,100863.84
2022-12-11T06:28:40.737Z,100862.22
2022-12-11T06:31:08.117Z,100862.00
2022-12-11T06:33:35.880Z,100866.91
2022-12-11T06:36:11.600Z,100862.69
2022-12-11T06:38:38.919Z,100859.53
2022-12-11T06:41:07.450Z,100863.72
2022-12-11T06:43:36.195Z,100872.16
2022-12-11T06:46:07.731Z,100860.47
2022-12-11T06:48:34.960Z,100854.03
2022-12-11T06:51:08.572Z,100865.25
2022-12-11T06:53:35.645Z,100847.22
2022-12-11T06:56:04.449Z,100849.72
2022-12-11T06:58:31.847Z,100855.66
2022-12-11T07:00:58.693Z,100848.06
2022-12-11T07:03:25.384Z,100848.41
2022-12-11T07:05:52.021Z,100843.75
2022-12-11T07:08:18.705Z,100869.72
2022-12-11T07:10:45.352Z,100870.19
2022-12-11T07:13:11.915Z,100870.78
2022-12-11T07:15:40.444Z,100865.97
2022-12-11T07:18:07.404Z,100876.50
2022-12-11T07:20:34.033Z,100861.78
2022-12-11T07:23:00.955Z,100873.13
2022-12-11T07:25:27.536Z,100868.78
2022-12-11T07:27:54.154Z,100884.69
2022-12-11T07:30:20.710Z,100884.81
2022-12-11T07:32:47.356Z,100889.47
2022-12-11T07:35:14.172Z,100880.94
2022-12-11T07:37:41.695Z,100876.97
2022-12-11T07:40:08.985Z,100887.06
2022-12-11T07:42:35.725Z,100873.34
2022-12-11T07:45:02.493Z,100872.19
2022-12-11T07:47:29.151Z,100876.50
2022-12-11T07:49:55.923Z,100878.50
2022-12-11T07:52:22.540Z,100873.47
2022-12-11T07:54:49.179Z,100882.59
2022-12-11T07:57:15.819Z,100885.53
2022-12-11T07:59:42.579Z,100880.38
2022-12-11T08:02:11.944Z,100888.66
2022-12-11T08:04:39.187Z,100880.03
2022-12-11T08:07:05.874Z,100880.72
2022-12-11T08:09:32.511Z,100880.59
2022-12-11T08:11:59.410Z,100892.31
2022-12-11T08:14:27.456Z,100887.97
2022-12-11T08:16:54.118Z,100880.47
2022-12-11T08:19:20.792Z,100878.38
2022-12-11T08:21:47.541Z,100878.16
2022-12-11T08:24:16.295Z,100883.66
2022-12-11T08:26:44.479Z,100876.72
2022-12-11T08:29:11.204Z,100878.84
2022-12-11T08:31:42.472Z,100881.88
2022-12-11T08:34:09.591Z,100891.38
2022-12-11T08:36:37.669Z,100890.91
2022-12-11T08:39:04.415Z,100884.13
2022-12-11T08:41:33.357Z,100890.06
2022-12-11T08:44:01.768Z,100864.69
2022-12-11T08:46:34.983Z,100884.91
2022-12-11T08:49:01.601Z,100884.00
2022-12-11T08:51:29.988Z,100873.09
2022-12-11T08:54:03.264Z,100877.22
2022-12-11T08:56:30.701Z,100872.50
2022-12-11T08:59:01.228Z,100869.94
2022-12-11T09:01:28.352Z,100868.31
2022-12-11T09:03:56.581Z,100867.38
2022-12-11T09:06:25.947Z,100872.50
2022-12-11T09:08:54.019Z,100877.91
2022-12-11T09:11:24.158Z,100870.88
2022-12-11T09:13:50.829Z,100869.81
2022-12-11T09:16:19.719Z,100877.19
2022-12-11T09:18:48.604Z,100878.81
2022-12-11T09:21:18.003Z,100887.25
2022-12-11T09:23:44.896Z,100884.47
2022-12-11T09:26:14.228Z,100883.28
2022-12-11T09:28:46.158Z,100881.03
2022-12-11T09:31:17.204Z,100880.31
2022-12-11T09:33:44.685Z,100880.69
2022-12-11T09:36:12.458Z,100874.50
2022-12-11T09:38:39.585Z,100880.22
2022-12-11T09:41:23.100Z,100880.56
2022-12-11T09:43:52.357Z,100871.53
2022-12-11T09:46:24.426Z,100858.78
2022-12-11T09:48:53.623Z,100874.34
2022-12-11T09:51:34.302Z,100875.75
2022-12-11T09:54:04.368Z,100877.13
2022-12-11T09:56:52.854Z,100859.97
2022-12-11T09:59:34.281Z,100855.69
2022-12-11T10:02:34.110Z,100860.25
2022-12-11T10:05:17.992Z,100853.47
2022-12-11T10:07:52.664Z,100850.44
2022-12-11T10:10:55.170Z,100857.44
2022-12-11T10:13:55.657Z,100865.84
2022-12-11T10:17:00.382Z,100847.94
2022-12-11T10:19:32.516Z,100853.66
2022-12-11T10:22:04.539Z,100850.56
2022-12-11T10:27:31.584Z,100836.28
2022-12-11T10:30:37.582Z,100850.09
2022-12-11T10:33:26.710Z,100843.69
2022-12-11T10:35:55.881Z,100838.84
2022-12-11T10:38:29.674Z,100832.13
2022-12-11T10:41:01.888Z,100838.09
2022-12-11T10:43:37.509Z,100839.03
2022-12-11T10:46:07.136Z,100834.59
2022-12-11T10:48:33.763Z,100833.63
2022-12-11T10:51:07.078Z,100819.97
2022-12-11T10:53:34.809Z,100817.47
2022-12-11T10:56:02.839Z,100819.75
2022-12-11T10:58:34.586Z,100832.94
2022-12-11T11:01:14.426Z,100839.63
2022-12-11T11:03:56.868Z,100812.94
2022-12-11T11:06:24.754Z,100831.78
2022-12-11T11:08:55.764Z,100826.63
2022-12-11T11:11:37.066Z,100822.69
2022-12-11T11:14:14.065Z,100829.63
2022-12-11T11:16:44.862Z,100824.50
2022-12-11T11:19:29.367Z,100825.78
2022-12-11T11:22:20.753Z,100818.25
2022-12-11T11:24:55.948Z,100816.88
2022-12-11T11:27:43.863Z,100821.69
2022-12-11T11:30:26.165Z,100818.13
2022-12-11T11:33:02.467Z,100809.72
2022-12-11T11:35:31.286Z,100816.41
2022-12-11T11:38:03.898Z,100808.84
2022-12-11T11:40:39.732Z,100807.78
2022-12-11T11:43:12.858Z,100817.56
2022-12-11T11:46:36.580Z,100820.31
2022-12-11T11:49:23.068Z,100816.06
2022-12-11T11:52:07.974Z,100800.94
2022-12-11T11:54:40.072Z,100803.00
2022-12-11T11:57:29.278Z,100813.38
2022-12-11T12:00:09.636Z,100817.16
2022-12-11T12:02:41.548Z,100814.56
2022-12-11T12:05:15.377Z,100805.25
2022-12-11T12:07:58.238Z,100804.69
2022-12-11T12:10:43.364Z,100804.13
2022-12-11T12:16:52.651Z,100800.59
2022-12-11T12:19:42.884Z,100799.34
2022-12-11T12:22:50.838Z,100788.97
2022-12-11T12:25:42.274Z,100789.41
2022-12-11T12:28:36.861Z,100791.47
2022-12-11T12:31:34.348Z,100789.47
2022-12-11T12:34:24.532Z,100794.88
2022-12-11T12:37:02.648Z,100791.75
2022-12-11T12:39:57.611Z,100788.19
2022-12-11T12:42:44.503Z,100782.63
2022-12-11T12:45:11.371Z,100789.69
2022-12-11T12:47:39.598Z,100779.50
2022-12-11T12:50:14.893Z,100779.19
2022-12-11T12:52:42.929Z,100776.47
2022-12-11T12:55:23.074Z,100780.56
2022-12-11T12:58:00.374Z,100773.78
2022-12-11T13:00:37.510Z,100776.34
2022-12-11T13:03:17.080Z,100772.81
2022-12-11T13:05:54.952Z,100774.03
2022-12-11T13:08:52.623Z,100778.34
2022-12-11T13:11:20.991Z,100773.53
2022-12-11T13:14:03.898Z,100767.31
2022-12-11T13:16:41.243Z,100779.97
2022-12-11T13:19:39.041Z,100775.88
2022-12-11T13:22:15.129Z,100774.81
2022-12-11T13:25:04.956Z,100771.03
2022-12-11T13:27:40.880Z,100767.56
2022-12-11T13:30:23.750Z,100767.22
2022-12-11T13:33:03.381Z,100775.06
2022-12-11T13:35:33.134Z,100769.34
2022-12-11T13:38:06.375Z,100776.25
2022-12-11T13:40:40.172Z,100777.47
2022-12-11T13:43:22.643Z,100779.38
2022-12-11T13:45:51.507Z,100778.03
2022-12-11T13:48:25.670Z,100782.75
2022-12-11T13:50:53.642Z,100778.78
2022-12-11T13:53:21.840Z,100784.75
2022-12-11T13:56:07.083Z,100781.38
2022-12-11T13:58:39.176Z,100776.59
2022-12-11T14:01:15.895Z,100785.69
2022-12-11T14:04:14.012Z,100783.13
2022-12-11T14:06:41.913Z,100780.13
2022-12-11T14:09:16.187Z,100778.31
2022-12-11T14:11:43.503Z,100779.13
2022-12-11T14:14:22.453Z,100791.44
2022-12-11T14:16:51.559Z,100786.72
2022-12-11T14:19:21.948Z,100787.66
2022-12-11T14:21:56.870Z,100788.31
2022-12-11T14:24:23.849Z,100792.63
2022-12-11T14:26:52.803Z,100798.06
2022-12-11T14:29:31.616Z,100792.91
2022-12-11T14:32:05.558Z,100794.91
2022-12-11T14:34:36.971Z,100801.94
2022-12-11T14:37:06.921Z,100798.09
2022-12-11T14:39:40.261Z,100788.31
2022-12-11T14:42:20.946Z,100801.94
2022-12-11T14:44:59.652Z,100795.38
2022-12-11T14:47:31.534Z,100804.19
2022-12-11T14:50:05.279Z,100805.91
2022-12-11T14:52:45.717Z,100812.00
2022-12-11T14:55:29.364Z,100809.09
2022-12-11T14:58:04.244Z,100818.06
2022-12-11T15:00:37.939Z,100816.69
2022-12-11T15:03:17.628Z,100818.56
2022-12-11T15:05:56.103Z,100820.44
2022-12-11T15:08:27.622Z,100830.31
2022-12-11T15:11:10.784Z,100811.09
2022-12-11T15:13:48.316Z,100818.16
2022-12-11T15:16:15.796Z,100819.09
2022-12-11T15:18:43.098Z,100809.97
2022-12-11T15:21:12.298Z,100820.53
2022-12-11T15:23:55.748Z,100825.44
2022-12-11T15:26:38.758Z,100804.75
2022-12-11T15:29:33.276Z,100819.94
2022-12-11T15:32:20.337Z,100821.72
2022-12-11T15:34:54.624Z,100813.66
2022-12-11T15:37:33.400Z,100822.53
2022-12-11T15:40:05.382Z,100828.53
2022-12-11T15:42:40.156Z,100821.16
2022-12-11T15:45:08.294Z,100820.78
2022-12-11T15:47:37.147Z,100817.97
2022-12-11T15:50:22.958Z,100818.91
2022-12-11T15:52:51.352Z,100820.22
2022-12-11T15:55:20.009Z,100818.81
2022-12-11T15:57:55.435Z,100814.00
2022-12-11T16:00:24.094Z,100822.78
2022-12-11T16:02:53.192Z,100818.94
2022-12-11T16:05:20.548Z,100834.13
2022-12-11T16:07:48.228Z,100831.09
2022-12-11T16:10:17.785Z,100818.94
2022-12-11T16:12:45.403Z,100820.00
2022-12-11T16:15:19.893Z,100832.75
2022-12-11T16:17:49.695Z,100824.56
2022-12-11T16:20:17.618Z,100835.56
2022-12-11T16:22:44.696Z,100824.56
2022-12-11T16:25:11.882Z,100819.66
2022-12-11T16:27:38.824Z,100822.56
2022-12-11T16:30:06.382Z,100829.72
2022-12-11T16:32:33.528Z,100820.69
2022-12-11T16:35:01.344Z,100828.78
2022-12-11T16:37:29.591Z,100828.91
2022-12-11T16:39:56.307Z,100823.28
2022-12-11T16:42:28.153Z,100800.25
2022-12-11T16:45:03.757Z,100811.22
2022-12-11T16:47:30.754Z,100819.28
2022-12-11T16:49:59.335Z,100799.41
2022-12-11T16:52:26.172Z,100819.41
2022-12-11T16:54:53.002Z,100820.34
2022-12-11T16:57:19.861Z,100823.97
2022-12-11T16:59:47.869Z,100813.22
2022-12-11T17:02:14.830Z,100818.25
2022-12-11T17:04:42.033Z,100813.34
2022-12-11T17:07:09.551Z,100819.88
2022-12-11T17:09:36.425Z,100815.56
2022-12-11T17:12:04.173Z,100816.38
2022-12-11T17:14:31.015Z,100807.63
2022-12-11T17:17:01.566Z,100813.00
2022-12-11T17:19:28.503Z,100801.31
2022-12-11T17:21:56.068Z,100821.06
2022-12-11T17:24:23.014Z,100819.44
2022-12-11T17:26:49.856Z,100810.19
2022-12-11T17:29:16.412Z,100818.59
2022-12-11T17:31:43.207Z,100815.22
2022-12-11T17:34:10.441Z,100818.25
2022-12-11T17:36:37.148Z,100815.78
2022-12-11T17:39:05.175Z,100816.63
2022-12-11T17:41:32.393Z,100820.13
2022-12-11T17:43:59.163Z,100822.22
2022-12-11T17:46:26.144Z,100824.47
2022-12-11T17:48:52.924Z,100815.56
2022-12-11T17:51:24.500Z,100818.72
2022-12-11T17:53:55.272Z,100810.06
2022-12-11T17:56:22.855Z,100798.38
2022-12-11T17:58:49.846Z,100803.53
2022-12-11T18:01:17.081Z,100806.31
2022-12-11T18:03:43.864Z,100811.47
2022-12-11T18:06:14.406Z,100797.22
2022-12-11T18:08:45.650Z,100802.22
2022-12-11T18:11:17.547Z,100798.00
2022-12-11T18:13:45.499Z,100803.88
2022-12-11T18:16:30.927Z,100812.53
2022-12-11T18:18:58.291Z,100813.47
2022-12-11T18:21:30.084Z,100810.41
2022-12-11T18:23:56.723Z,100812.41
2022-12-11T18:26:23.536Z,100819.31
2022-12-11T18:28:51.045Z,100825.28
2022-12-11T18:31:19.682Z,100817.69
2022-12-11T18:33:46.986Z,100819.44
2022-12-11T18:36:16.395Z,100815.22
2022-12-11T18:38:43.450Z,100812.78
2022-12-11T18:41:12.243Z,100805.84
2022-12-11T18:43:40.988Z,100806.78
2022-12-11T18:46:10.365Z,100807.16
2022-12-11T18:48:37.459Z,100804.13
2022-12-11T18:51:09.682Z,100809.75
2022-12-11T18:53:39.193Z,100816.16
2022-12-11T18:56:24.384Z,100812.66
2022-12-11T18:58:51.566Z,100803.53
2022-12-11T19:01:24.492Z,100808.91
2022-12-11T19:03:58.899Z,100810.53
2022-12-11T19:06:30.384Z,100802.34
2022-12-11T19:08:57.537Z,100808.56
2022-12-11T19:11:27.419Z,100799.81
2022-12-11T19:13:56.923Z,100798.97
2022-12-11T19:16:25.211Z,100804.13
2022-12-11T19:18:52.957Z,100796.75
2022-12-11T19:21:19.644Z,100801.41
2022-12-11T19:23:46.615Z,100791.59
2022-12-11T19:26:16.955Z,100810.44
2022-12-11T19:28:43.913Z,100804.13
2022-12-11T19:31:17.048Z,100813.03
2022-12-11T19:33:46.683Z,100812.19
2022-12-11T19:36:15.830Z,100824.00
2022-12-11T19:38:44.313Z,100826.69
2022-12-11T19:41:16.729Z,100818.03
2022-12-11T19:43:43.952Z,100818.16
2022-12-11T19:46:12.872Z,100827.63
2022-12-11T19:48:41.357Z,100816.84
2022-12-11T19:51:12.640Z,100822.59
2022-12-11T19:53:40.201Z,100819.69
2022-12-11T19:56:08.048Z,100817.13
2022-12-11T19:58:34.841Z,100815.59
2022-12-11T20:01:02.052Z,100823.31
2022-12-11T20:03:29.334Z,100819.69
2022-12-11T20:06:01.574Z,100818.03
2022-12-11T20:08:44.233Z,100811.25
2022-12-11T20:11:17.639Z,100824.38
2022-12-11T20:13:48.231Z,100812.66
2022-12-11T20:16:16.817Z,100826.81
2022-12-11T20:18:43.637Z,100827.75
2022-12-11T20:21:14.399Z,100824.13
2022-12-11T20:23:41.913Z,100813.94
2022-12-11T20:26:18.288Z,100816.41
2022-12-11T20:28:48.064Z,100820.84
2022-12-11T20:31:20.328Z,100816.84
2022-12-11T20:33:48.947Z,100818.75
2022-12-11T20:36:17.430Z,100821.31
2022-12-11T20:38:44.294Z,100822.25
2022-12-11T20:41:13.648Z,100821.31
2022-12-11T20:43:40.784Z,100822.50
2022-12-11T20:46:09.775Z,100827.28
2022-12-11T20:48:38.935Z,100824.69
2022-12-11T20:51:07.912Z,100827.16
2022-12-11T20:53:36.033Z,100817.81
2022-12-11T20:56:08.320Z,100829.84
2022-12-11T20:58:34.939Z,100828.44
2022-12-11T21:01:01.865Z,100822.97
2022-12-11T21:03:29.633Z,100824.56
2022-12-11T21:05:56.218Z,100831.25
2022-12-11T21:08:22.854Z,100836.97
2022-12-11T21:10:50.490Z,100838.03
2022-12-11T21:13:17.081Z,100838.28
2022-12-11T21:15:44.074Z,100833.94
2022-12-11T21:18:10.609Z,100849.38
2022-12-11T21:20:37.455Z,100852.88
2022-12-11T21:23:04.329Z,100849.63
2022-12-11T21:25:31.068Z,100853.13
2022-12-11T21:27:57.625Z,100853.13
2022-12-11T21:30:24.188Z,100848.78
2022-12-11T21:32:50.874Z,100846.13
2022-12-11T21:35:17.493Z,100852.06
2022-12-11T21:37:44.168Z,100841.06
2022-12-11T21:40:11.275Z,100856.63
2022-12-11T21:42:37.891Z,100854.16
2022-12-11T21:47:51.501Z,100851.13
2022-12-11T21:50:18.329Z,100843.28
2022-12-11T21:52:45.064Z,100851.25
2022-12-11T21:55:12.738Z,100845.38
2022-12-11T21:57:39.600Z,100857.19
2022-12-11T22:00:06.667Z,100857.56
2022-12-11T22:02:41.128Z,100858.72
2022-12-11T22:05:08.839Z,100856.97
2022-12-11T22:07:35.669Z,100857.88
2022-12-11T22:10:02.255Z,100861.91
2022-12-11T22:12:31.965Z,100867.13
2022-12-11T22:14:58.774Z,100864.56
2022-12-11T22:17:25.451Z,100867.97
2022-12-11T22:19:52.671Z,100866.19
2022-12-11T22:22:19.543Z,100862.34
2022-12-11T22:24:46.783Z,100857.75
2022-12-11T22:27:13.797Z,100863.91
2022-12-11T22:29:42.027Z,100861.44
2022-12-11T22:32:08.788Z,100852.53
2022-12-11T22:34:35.502Z,100852.41
2022-12-11T22:37:03.262Z,100853.06
2022-12-11T22:39:29.876Z,100854.78
2022-12-11T22:41:56.397Z,100856.25
2022-12-11T22:44:23.092Z,100857.16
2022-12-11T22:46:50.655Z,100857.53
2022-12-11T22:49:18.845Z,100857.53
2022-12-11T22:51:45.724Z,100853.44
2022-12-11T22:54:13.006Z,100855.63
2022-12-11T22:56:39.563Z,100858.63
2022-12-11T22:59:07.589Z,100851.72
2022-12-11T23:01:34.697Z,100852.22
2022-12-11T23:04:01.441Z,100844.97
2022-12-11T23:06:28.141Z,100847.78
2022-12-11T23:08:58.399Z,100849.78
2022-12-11T23:11:29.361Z,100848.56
2022-12-11T23:13:56.605Z,100847.56
2022-12-11T23:16:25.822Z,100848.47
2022-12-11T23:18:55.694Z,100843.75
2022-12-11T23:21:23.345Z,100850.34
2022-12-11T23:23:50.801Z,100846.13
2022-12-11T23:26:19.201Z,100856.50
2022-12-11T23:28:46.553Z,100856.69
2022-12-11T23:31:13.505Z,100858.84
2022-12-11T23:33:40.246Z,100862.13
2022-12-11T23:36:07.771Z,100860.28
2022-12-11T23:38:34.573Z,100839.97
2022-12-11T23:41:02.431Z,100857.91
2022-12-11T23:43:29.543Z,100853.38
2022-12-11T23:45:57.302Z,100867.56
2022-12-11T23:48:24.040Z,100861.06
2022-12-11T23:50:50.779Z,100864.66
2022-12-11T23:53:17.467Z,100867.84
2022-12-11T23:55:45.719Z,100868.56
2022-12-11T23:58:12.740Z,100872.44
